Terminal Aerodrome Forecast
Issued by NWS

Home | Current Version | Previous Version | Graphics & Text | Print | Product List | Glossary On
Versions: 1 2 3 4 5 6 7 8 9 10 11 12 13 14 15
000
FTUS43 KBIS 280101 AAA
TAFJMS
TAF AMD
KJMS 280101Z 2801/2824 33010KT P6SM SKC
     FM280400 32007KT P6SM SKC
     FM281700 34013G21KT P6SM SCT050=

USA.gov is the U.S. government's official web portal to all federal, state and local government web resources and services.